createdAt,value
2018-12-17T00:00:39.878Z,43.23
2018-12-17T00:03:08.323Z,42.33
2018-12-17T00:05:41.715Z,44.80
2018-12-17T00:08:07.743Z,41.70
2018-12-17T00:10:36.967Z,41.97
2018-12-17T00:13:04.659Z,44.53
2018-12-17T00:15:33.190Z,42.57
2018-12-17T00:18:01.284Z,47.40
2018-12-17T00:20:28.876Z,43.20
2018-12-17T00:22:58.626Z,40.77
2018-12-17T00:25:26.694Z,40.97
2018-12-17T00:27:54.449Z,38.57
2018-12-17T00:30:22.350Z,40.80
2018-12-17T00:32:50.423Z,40.77
2018-12-17T00:35:18.414Z,39.10
2018-12-17T00:37:46.422Z,37.83
2018-12-17T00:40:14.607Z,40.13
2018-12-17T00:42:42.384Z,38.30
2018-12-17T00:45:10.145Z,38.40
2018-12-17T00:47:37.739Z,36.90
2018-12-17T00:50:06.793Z,39.47
2018-12-17T00:52:37.125Z,36.57
2018-12-17T00:55:05.765Z,34.70
2018-12-17T00:57:33.838Z,37.10
2018-12-17T01:00:01.911Z,37.37
2018-12-17T01:02:30.145Z,37.10
2018-12-17T01:04:57.771Z,36.60
2018-12-17T01:07:27.553Z,33.40
2018-12-17T01:09:55.559Z,35.97
2018-12-17T01:12:23.714Z,36.07
2018-12-17T01:14:52.497Z,35.13
2018-12-17T01:17:20.118Z,33.53
2018-12-17T01:19:47.796Z,37.20
2018-12-17T01:22:16.446Z,34.73
2018-12-17T01:24:44.427Z,34.13
2018-12-17T01:27:12.117Z,32.17
2018-12-17T01:29:41.507Z,33.87
2018-12-17T01:32:09.275Z,32.33
2018-12-17T01:34:36.995Z,35.07
2018-12-17T01:37:04.902Z,33.07
2018-12-17T01:39:33.052Z,31.73
2018-12-17T01:42:00.703Z,34.53
2018-12-17T01:44:28.518Z,31.33
2018-12-17T01:46:56.409Z,34.43
2018-12-17T01:49:25.191Z,36.60
2018-12-17T01:51:52.825Z,36.43
2018-12-17T01:54:20.405Z,36.47
2018-12-17T01:56:48.130Z,39.27
2018-12-17T01:59:15.822Z,36.57
2018-12-17T02:01:43.487Z,38.53
2018-12-17T02:04:11.090Z,40.43
2018-12-17T02:06:38.672Z,43.13
2018-12-17T02:09:06.684Z,37.40
2018-12-17T02:11:34.251Z,35.90
2018-12-17T02:14:01.842Z,34.40
2018-12-17T02:16:29.417Z,35.57
2018-12-17T02:18:57.208Z,35.87
2018-12-17T02:21:24.754Z,38.10
2018-12-17T02:23:52.345Z,40.47
2018-12-17T02:26:19.947Z,39.07
2018-12-17T02:28:47.583Z,36.47
2018-12-17T02:31:15.168Z,37.10
2018-12-17T02:33:42.773Z,39.27
2018-12-17T02:36:10.368Z,40.03
2018-12-17T02:38:37.956Z,43.40
2018-12-17T02:41:05.566Z,37.83
2018-12-17T02:43:33.130Z,35.90
2018-12-17T02:46:00.718Z,37.63
2018-12-17T02:48:28.284Z,37.97
2018-12-17T02:50:55.936Z,36.73
2018-12-17T02:53:23.605Z,43.93
2018-12-17T02:55:51.197Z,42.17
2018-12-17T02:58:18.831Z,37.97
2018-12-17T03:00:46.462Z,37.70
2018-12-17T03:03:14.013Z,37.63
2018-12-17T03:05:41.920Z,44.70
2018-12-17T03:08:09.628Z,42.40
2018-12-17T03:10:37.214Z,39.90
2018-12-17T03:13:04.845Z,41.60
2018-12-17T03:15:32.711Z,40.67
2018-12-17T03:18:00.293Z,38.43
2018-12-17T03:20:27.919Z,37.30
2018-12-17T03:22:55.480Z,41.63
2018-12-17T03:25:23.067Z,39.43
2018-12-17T03:27:50.655Z,42.37
2018-12-17T03:30:18.253Z,40.53
2018-12-17T03:32:45.847Z,35.57
2018-12-17T03:35:13.530Z,38.30
2018-12-17T03:37:41.143Z,44.60
2018-12-17T03:40:08.961Z,37.63
2018-12-17T03:42:36.671Z,40.70
2018-12-17T03:45:04.468Z,35.07
2018-12-17T03:47:32.118Z,37.93
2018-12-17T03:49:59.751Z,37.13
2018-12-17T03:52:27.289Z,35.73
2018-12-17T03:54:54.917Z,36.67
2018-12-17T03:57:22.489Z,35.97
2018-12-17T03:59:50.077Z,34.80
2018-12-17T04:02:17.664Z,40.23
2018-12-17T04:04:45.379Z,38.27
2018-12-17T04:07:12.926Z,38.83
2018-12-17T04:09:40.509Z,44.50
2018-12-17T04:12:08.106Z,38.67
2018-12-17T04:14:35.687Z,34.33
2018-12-17T04:17:03.269Z,35.07
2018-12-17T04:19:30.840Z,36.73
2018-12-17T04:21:58.460Z,38.00
2018-12-17T04:24:26.049Z,35.47
2018-12-17T04:26:53.604Z,31.40
2018-12-17T04:29:21.161Z,37.50
2018-12-17T04:31:48.755Z,36.03
2018-12-17T04:34:16.313Z,33.90
2018-12-17T04:36:43.865Z,31.90
2018-12-17T04:39:11.446Z,34.60
2018-12-17T04:41:39.085Z,37.93
2018-12-17T04:44:06.629Z,39.97
2018-12-17T04:46:34.228Z,35.30
2018-12-17T04:49:01.789Z,36.03
2018-12-17T04:51:29.577Z,38.47
2018-12-17T04:53:57.156Z,40.10
2018-12-17T04:56:24.896Z,35.50
2018-12-17T04:58:52.429Z,36.03
2018-12-17T05:01:20.036Z,33.30
2018-12-17T05:03:47.681Z,41.37
2018-12-17T05:06:15.280Z,40.57
2018-12-17T05:08:42.853Z,39.10
2018-12-17T05:11:10.480Z,36.17
2018-12-17T05:13:38.043Z,37.27
2018-12-17T05:16:05.668Z,36.77
2018-12-17T05:18:33.219Z,37.50
2018-12-17T05:21:00.844Z,36.03
2018-12-17T05:23:28.408Z,37.50
2018-12-17T05:25:56.071Z,33.30
2018-12-17T05:28:23.632Z,31.53
2018-12-17T05:30:51.219Z,36.30
2018-12-17T05:33:18.995Z,39.80
2018-12-17T05:35:46.645Z,36.13
2018-12-17T05:38:14.263Z,36.87
2018-12-17T05:40:41.824Z,36.60
2018-12-17T05:43:09.384Z,36.43
2018-12-17T05:45:36.978Z,32.63
2018-12-17T05:48:04.519Z,39.60
2018-12-17T05:50:32.095Z,38.27
2018-12-17T05:52:59.639Z,45.17
2018-12-17T05:55:27.219Z,38.03
2018-12-17T05:57:54.791Z,38.70
2018-12-17T06:00:23.354Z,34.60
2018-12-17T06:02:50.941Z,34.20
2018-12-17T06:05:18.459Z,35.83
2018-12-17T06:07:46.016Z,35.83
2018-12-17T06:10:13.553Z,35.00
2018-12-17T06:12:41.596Z,36.60
2018-12-17T06:15:09.291Z,32.43
2018-12-17T06:17:38.565Z,34.93
2018-12-17T06:20:06.811Z,32.13
2018-12-17T06:22:34.402Z,31.77
2018-12-17T06:25:02.000Z,30.53
2018-12-17T06:27:36.615Z,30.33
2018-12-17T06:29:59.320Z,30.60
2018-12-17T06:32:26.923Z,29.97
2018-12-17T06:34:55.212Z,31.40
2018-12-17T06:37:22.837Z,31.53
2018-12-17T06:39:50.385Z,30.07
2018-12-17T06:42:17.992Z,32.50
2018-12-17T06:44:45.556Z,35.50
2018-12-17T06:47:13.123Z,37.57
2018-12-17T06:49:40.677Z,36.43
2018-12-17T06:52:08.254Z,36.53
2018-12-17T06:54:35.799Z,34.00
2018-12-17T06:57:03.361Z,37.87
2018-12-17T06:59:30.970Z,34.97
2018-12-17T07:01:58.779Z,34.07
2018-12-17T07:04:26.316Z,35.30
2018-12-17T07:06:53.914Z,33.10
2018-12-17T07:09:21.661Z,38.27
2018-12-17T07:11:49.250Z,46.67
2018-12-17T07:14:16.887Z,42.63
2018-12-17T07:16:44.508Z,30.97
2018-12-17T07:19:12.057Z,34.33
2018-12-17T07:21:39.646Z,38.10
2018-12-17T07:24:07.271Z,34.90
2018-12-17T07:26:34.910Z,35.33
2018-12-17T07:29:02.504Z,30.70
2018-12-17T07:31:30.186Z,33.53
2018-12-17T07:33:57.796Z,36.80
2018-12-17T07:36:25.369Z,31.03
2018-12-17T07:38:52.905Z,34.67
2018-12-17T07:41:20.608Z,30.20
2018-12-17T07:43:48.260Z,31.50
2018-12-17T07:46:15.787Z,35.03
2018-12-17T07:48:43.357Z,31.30
2018-12-17T07:51:10.894Z,26.27
2018-12-17T07:53:38.485Z,34.77
2018-12-17T07:56:06.044Z,31.77
2018-12-17T07:58:33.671Z,32.27
2018-12-17T08:01:01.196Z,31.90
2018-12-17T08:03:28.754Z,30.10
2018-12-17T08:05:56.346Z,31.97
2018-12-17T08:08:23.926Z,28.80
2018-12-17T08:10:51.472Z,29.53
2018-12-17T08:13:19.838Z,31.23
2018-12-17T08:15:47.386Z,29.33
2018-12-17T08:18:23.195Z,28.70
2018-12-17T08:20:51.317Z,28.33
2018-12-17T08:23:18.981Z,31.63
2018-12-17T08:25:46.563Z,31.60
2018-12-17T08:28:14.133Z,32.73
2018-12-17T08:30:41.770Z,29.33
2018-12-17T08:33:09.332Z,35.43
2018-12-17T08:35:36.868Z,31.80
2018-12-17T08:38:04.869Z,33.87
2018-12-17T08:40:32.396Z,33.40
2018-12-17T08:42:59.938Z,36.17
2018-12-17T08:45:27.550Z,34.67
2018-12-17T08:47:55.135Z,39.80
2018-12-17T08:50:23.083Z,36.17
2018-12-17T08:52:50.634Z,34.50
2018-12-17T08:55:18.296Z,34.80
2018-12-17T08:57:45.846Z,34.53
2018-12-17T09:00:14.280Z,30.37
2018-12-17T09:02:41.871Z,31.13
2018-12-17T09:05:09.395Z,35.60
2018-12-17T09:07:36.960Z,27.63
2018-12-17T09:10:05.555Z,29.73
2018-12-17T09:12:33.145Z,28.77
2018-12-17T09:15:00.662Z,30.40
2018-12-17T09:17:28.444Z,31.07
2018-12-17T09:19:55.978Z,32.33
2018-12-17T09:22:23.522Z,29.40
2018-12-17T09:24:51.061Z,25.83
2018-12-17T09:27:18.625Z,30.60
2018-12-17T09:29:46.151Z,25.30
2018-12-17T09:32:13.670Z,27.27
2018-12-17T09:34:41.233Z,24.30
2018-12-17T09:37:08.783Z,27.90
2018-12-17T09:39:36.380Z,24.87
2018-12-17T09:42:03.901Z,27.40
2018-12-17T09:44:31.439Z,24.60
2018-12-17T09:46:58.965Z,28.93
2018-12-17T09:49:26.520Z,29.10
2018-12-17T09:51:54.054Z,27.67
2018-12-17T09:54:21.590Z,28.07
2018-12-17T09:56:49.106Z,31.37
2018-12-17T09:59:16.663Z,30.30
2018-12-17T10:01:44.286Z,35.70
2018-12-17T10:04:12.933Z,33.33
2018-12-17T10:06:41.526Z,33.93
2018-12-17T10:09:09.545Z,35.93
2018-12-17T10:11:37.077Z,31.60
2018-12-17T10:14:04.818Z,31.63
2018-12-17T10:16:33.812Z,32.80
2018-12-17T10:19:03.518Z,35.63
2018-12-17T10:21:32.922Z,57.43
2018-12-17T10:24:01.502Z,47.50
2018-12-17T10:26:29.863Z,45.50
2018-12-17T10:28:57.703Z,47.57
2018-12-17T10:31:26.360Z,45.37
2018-12-17T10:33:54.003Z,43.17
2018-12-17T10:36:21.763Z,40.97
2018-12-17T10:38:50.293Z,33.83
2018-12-17T10:41:17.832Z,37.67
2018-12-17T10:43:45.898Z,32.90
2018-12-17T10:46:13.520Z,32.90
2018-12-17T10:48:41.849Z,38.23
2018-12-17T10:51:09.877Z,32.07
2018-12-17T10:53:37.438Z,34.20
2018-12-17T10:56:06.032Z,32.83
2018-12-17T10:58:33.774Z,26.37
2018-12-17T11:01:07.292Z,22.70
2018-12-17T11:03:38.041Z,21.47
2018-12-17T11:06:06.731Z,20.30
2018-12-17T11:08:34.524Z,20.60
2018-12-17T11:11:02.335Z,21.83
2018-12-17T11:13:30.424Z,20.93
2018-12-17T11:15:58.417Z,21.03
2018-12-17T11:18:26.024Z,17.57
2018-12-17T11:20:53.839Z,18.57
2018-12-17T11:23:21.416Z,14.97
2018-12-17T11:25:48.965Z,15.90
2018-12-17T11:28:16.601Z,15.63
2018-12-17T11:30:46.713Z,16.80
2018-12-17T11:33:13.720Z,15.40
2018-12-17T11:35:41.409Z,15.17
2018-12-17T11:38:08.984Z,15.53
2018-12-17T11:40:36.533Z,14.00
2018-12-17T11:43:04.067Z,14.03
2018-12-17T11:45:31.827Z,16.70
2018-12-17T11:47:59.353Z,17.10
2018-12-17T11:50:27.426Z,16.47
2018-12-17T11:52:55.095Z,17.77
2018-12-17T11:55:22.644Z,17.33
2018-12-17T11:58:12.713Z,17.80
2018-12-17T12:00:41.563Z,15.07
2018-12-17T12:03:09.075Z,19.63
2018-12-17T12:05:36.616Z,18.67
2018-12-17T12:08:04.125Z,18.47
2018-12-17T12:10:31.671Z,18.87
2018-12-17T12:12:59.210Z,16.83
2018-12-17T12:15:26.749Z,19.87
2018-12-17T12:17:54.291Z,18.47
2018-12-17T12:20:21.846Z,16.33
2018-12-17T12:22:49.359Z,16.17
2018-12-17T12:25:20.408Z,13.70
2018-12-17T12:27:47.935Z,13.07
2018-12-17T12:30:15.591Z,12.37
2018-12-17T12:32:43.107Z,11.50
2018-12-17T12:35:11.893Z,10.37
2018-12-17T12:37:39.637Z,9.60
2018-12-17T12:40:08.650Z,8.00
2018-12-17T12:42:36.184Z,9.17
2018-12-17T12:45:04.359Z,8.47
2018-12-17T12:47:31.882Z,8.93
2018-12-17T12:49:59.463Z,9.50
2018-12-17T12:52:27.005Z,11.23
2018-12-17T12:54:54.581Z,10.67
2018-12-17T12:57:22.116Z,9.97
2018-12-17T12:59:49.665Z,6.83
2018-12-17T13:02:18.092Z,8.13
2018-12-17T13:04:45.798Z,7.90
2018-12-17T13:07:13.312Z,5.87
2018-12-17T13:09:40.868Z,5.83
2018-12-17T13:12:08.414Z,5.57
2018-12-17T13:14:35.992Z,5.83
2018-12-17T13:17:05.927Z,6.17
2018-12-17T13:19:33.548Z,5.93
2018-12-17T13:22:01.122Z,6.23
2018-12-17T13:24:28.680Z,6.37
2018-12-17T13:26:56.181Z,6.23
2018-12-17T13:29:23.706Z,6.70
2018-12-17T13:31:51.267Z,8.70
2018-12-17T13:34:18.785Z,5.37
2018-12-17T13:36:46.469Z,4.43
2018-12-17T13:39:14.047Z,5.07
2018-12-17T13:41:41.617Z,5.00
2018-12-17T13:44:10.169Z,4.20
2018-12-17T13:46:37.791Z,5.10
2018-12-17T13:49:05.566Z,4.50
2018-12-17T13:51:33.539Z,5.50
2018-12-17T13:54:01.067Z,4.70
2018-12-17T13:56:28.730Z,6.03
2018-12-17T13:58:56.359Z,5.40
2018-12-17T14:01:27.123Z,5.60
2018-12-17T14:03:54.713Z,4.27
2018-12-17T14:06:22.332Z,5.87
2018-12-17T14:08:50.908Z,4.83
2018-12-17T14:11:18.673Z,4.90
2018-12-17T14:13:47.251Z,5.10
2018-12-17T14:16:14.980Z,4.40
2018-12-17T14:18:48.020Z,4.83
2018-12-17T14:21:21.301Z,4.93
2018-12-17T14:23:48.946Z,5.20
2018-12-17T14:26:16.544Z,5.30
2018-12-17T14:28:44.060Z,5.57
2018-12-17T14:31:11.640Z,5.47
2018-12-17T14:33:39.223Z,5.63
2018-12-17T14:36:09.131Z,5.87
2018-12-17T14:38:36.862Z,6.33
2018-12-17T14:41:04.442Z,6.33
2018-12-17T14:43:32.203Z,6.07
2018-12-17T14:45:59.952Z,6.03
2018-12-17T14:48:27.491Z,5.77
2018-12-17T14:50:55.057Z,6.73
2018-12-17T14:53:22.604Z,6.60
2018-12-17T14:55:50.143Z,6.63
2018-12-17T14:58:17.743Z,6.73
2018-12-17T15:00:45.272Z,7.20
2018-12-17T15:03:12.866Z,7.33
2018-12-17T15:05:40.403Z,7.97
2018-12-17T15:08:07.953Z,8.27
2018-12-17T15:10:35.503Z,7.03
2018-12-17T15:13:03.124Z,7.23
2018-12-17T15:15:30.639Z,7.13
2018-12-17T15:17:58.562Z,7.20
2018-12-17T15:20:26.103Z,6.50
2018-12-17T15:22:53.674Z,6.93
2018-12-17T15:25:21.244Z,6.50
2018-12-17T15:27:48.803Z,6.27
2018-12-17T15:30:16.329Z,7.07
2018-12-17T15:32:43.942Z,5.87
2018-12-17T15:35:11.571Z,6.10
2018-12-17T15:37:39.168Z,10.63
2018-12-17T15:40:07.369Z,6.90
2018-12-17T15:42:40.768Z,5.10
2018-12-17T15:45:05.162Z,4.50
2018-12-17T15:47:32.734Z,4.30
2018-12-17T15:50:00.338Z,5.07
2018-12-17T15:52:27.964Z,5.27
2018-12-17T15:54:55.701Z,5.00
2018-12-17T15:57:23.281Z,5.23
2018-12-17T15:59:50.829Z,5.50
2018-12-17T16:02:18.387Z,5.07
2018-12-17T16:04:45.916Z,5.57
2018-12-17T16:07:13.539Z,6.53
2018-12-17T16:09:41.305Z,5.33
2018-12-17T16:12:08.860Z,5.23
2018-12-17T16:14:36.442Z,5.47
2018-12-17T16:17:04.022Z,5.30
2018-12-17T16:19:31.628Z,5.40
2018-12-17T16:21:59.144Z,5.43
2018-12-17T16:24:26.748Z,5.03
2018-12-17T16:26:54.275Z,5.80
2018-12-17T16:29:21.855Z,5.70
2018-12-17T16:31:49.398Z,5.53
2018-12-17T16:34:16.934Z,5.00
2018-12-17T16:36:44.710Z,5.87
2018-12-17T16:39:12.277Z,5.20
2018-12-17T16:41:39.816Z,6.47
2018-12-17T16:44:07.736Z,5.90
2018-12-17T16:46:35.303Z,6.00
2018-12-17T16:49:02.856Z,6.53
2018-12-17T16:51:30.394Z,6.70
2018-12-17T16:53:57.962Z,6.27
2018-12-17T16:56:27.115Z,6.83
2018-12-17T16:58:54.801Z,6.60
2018-12-17T17:01:22.455Z,7.00
2018-12-17T17:03:51.488Z,6.90
2018-12-17T17:06:19.104Z,6.33
2018-12-17T17:08:48.300Z,7.00
2018-12-17T17:11:16.143Z,7.33
2018-12-17T17:13:44.229Z,7.40
2018-12-17T17:16:12.824Z,7.20
2018-12-17T17:18:40.374Z,6.50
2018-12-17T17:21:12.779Z,7.37
2018-12-17T17:23:43.616Z,7.97
2018-12-17T17:26:13.177Z,8.17
2018-12-17T17:28:41.908Z,7.47
2018-12-17T17:31:09.999Z,7.70
2018-12-17T17:33:40.070Z,7.00
2018-12-17T17:36:09.327Z,7.67
2018-12-17T17:38:37.534Z,7.43
2018-12-17T17:41:05.651Z,7.20
2018-12-17T17:43:38.047Z,7.23
2018-12-17T17:46:08.699Z,7.03
2018-12-17T17:48:40.102Z,7.13
2018-12-17T17:51:09.598Z,9.20
2018-12-17T17:53:46.449Z,7.60
2018-12-17T17:56:15.679Z,7.70
2018-12-17T17:58:44.002Z,7.70
2018-12-17T18:01:15.306Z,7.17
2018-12-17T18:03:43.515Z,8.30
2018-12-17T18:06:16.335Z,7.33
2018-12-17T18:08:45.528Z,7.27
2018-12-17T18:11:15.311Z,7.27
2018-12-17T18:13:44.119Z,7.17
2018-12-17T18:16:13.224Z,8.03
2018-12-17T18:18:44.219Z,9.00
2018-12-17T18:21:17.041Z,9.03
2018-12-17T18:23:45.263Z,9.47
2018-12-17T18:26:12.833Z,10.03
2018-12-17T18:28:40.914Z,9.57
2018-12-17T18:31:08.587Z,10.13
2018-12-17T18:33:36.351Z,11.23
2018-12-17T18:36:04.117Z,11.07
2018-12-17T18:38:31.707Z,11.40
2018-12-17T18:41:01.236Z,11.13
2018-12-17T18:43:29.184Z,11.97
2018-12-17T18:45:57.583Z,12.27
2018-12-17T18:48:26.911Z,11.87
2018-12-17T18:50:56.571Z,13.27
2018-12-17T18:53:24.427Z,12.90
2018-12-17T18:55:53.332Z,13.40
2018-12-17T18:58:22.374Z,14.63
2018-12-17T19:00:50.296Z,15.00
2018-12-17T19:03:19.066Z,14.77
2018-12-17T19:05:49.502Z,15.47
2018-12-17T19:08:17.207Z,14.57
2018-12-17T19:10:51.227Z,16.80
2018-12-17T19:13:18.879Z,16.80
2018-12-17T19:15:48.835Z,17.97
2018-12-17T19:18:16.928Z,18.70
2018-12-17T19:20:44.539Z,15.70
2018-12-17T19:23:12.083Z,16.67
2018-12-17T19:25:40.152Z,17.47
2018-12-17T19:28:07.747Z,17.20
2018-12-17T19:30:38.572Z,16.50
2018-12-17T19:33:06.536Z,17.07
2018-12-17T19:35:34.671Z,16.80
2018-12-17T19:38:02.645Z,16.67
2018-12-17T19:40:31.509Z,17.23
2018-12-17T19:43:01.307Z,16.93
2018-12-17T19:45:29.452Z,16.13
2018-12-17T19:47:58.391Z,17.07
2018-12-17T19:50:26.435Z,17.60
2018-12-17T19:52:54.372Z,18.53
2018-12-17T19:55:22.435Z,16.40
2018-12-17T19:57:50.402Z,18.33
2018-12-17T20:00:18.499Z,17.47
2018-12-17T20:02:49.673Z,20.20
2018-12-17T20:05:17.773Z,17.27
2018-12-17T20:07:45.761Z,19.90
2018-12-17T20:10:17.423Z,21.10
2018-12-17T20:12:45.458Z,19.00
2018-12-17T20:15:17.532Z,19.40
2018-12-17T20:17:46.589Z,19.10
2018-12-17T20:20:14.603Z,20.00
2018-12-17T20:22:42.600Z,18.73
2018-12-17T20:25:10.695Z,21.37
2018-12-17T20:27:38.679Z,22.27
2018-12-17T20:30:08.397Z,17.40
2018-12-17T20:32:36.365Z,18.70
2018-12-17T20:35:05.643Z,18.63
2018-12-17T20:37:33.595Z,18.20
2018-12-17T20:40:01.559Z,18.87
2018-12-17T20:42:29.557Z,21.50
2018-12-17T20:44:57.573Z,19.77
2018-12-17T20:47:25.534Z,25.57
2018-12-17T20:49:53.523Z,24.03
2018-12-17T20:52:21.567Z,22.80
2018-12-17T20:54:49.619Z,22.23
2018-12-17T20:57:17.576Z,19.70
2018-12-17T20:59:45.642Z,18.03
2018-12-17T21:02:13.611Z,19.83
2018-12-17T21:04:41.539Z,19.97
2018-12-17T21:07:10.272Z,19.93
2018-12-17T21:09:38.202Z,19.47
2018-12-17T21:12:06.285Z,20.53
2018-12-17T21:14:34.242Z,19.27
2018-12-17T21:17:03.251Z,19.30
2018-12-17T21:19:31.232Z,19.43
2018-12-17T21:21:59.267Z,19.97
2018-12-17T21:24:27.393Z,18.77
2018-12-17T21:26:55.445Z,18.17
2018-12-17T21:29:23.447Z,18.53
2018-12-17T21:31:55.526Z,18.53
2018-12-17T21:34:24.611Z,18.77
2018-12-17T21:36:55.576Z,21.13
2018-12-17T21:39:24.759Z,19.17
2018-12-17T21:41:54.971Z,18.70
2018-12-17T21:44:23.132Z,19.07
2018-12-17T21:46:56.677Z,21.47
2018-12-17T21:49:26.638Z,20.73
2018-12-17T21:51:54.695Z,16.67
2018-12-17T21:54:23.359Z,14.80
2018-12-17T21:56:51.398Z,14.17
2018-12-17T21:59:19.934Z,12.77
2018-12-17T22:01:47.919Z,11.27
2018-12-17T22:04:15.868Z,12.27
2018-12-17T22:06:44.102Z,11.97
2018-12-17T22:09:12.114Z,12.50
2018-12-17T22:11:40.161Z,10.73
2018-12-17T22:14:08.099Z,10.67
2018-12-17T22:16:36.149Z,9.00
2018-12-17T22:19:04.064Z,8.60
2018-12-17T22:21:32.095Z,8.97
2018-12-17T22:24:00.085Z,9.00
2018-12-17T22:26:29.313Z,8.10
2018-12-17T22:28:57.542Z,8.73
2018-12-17T22:31:25.117Z,8.57
2018-12-17T22:33:52.653Z,8.87
2018-12-17T22:36:20.240Z,9.30
2018-12-17T22:38:48.353Z,9.17
2018-12-17T22:41:15.910Z,8.97
2018-12-17T22:43:43.487Z,8.53
2018-12-17T22:46:10.996Z,9.27
2018-12-17T22:48:38.541Z,8.00
2018-12-17T22:51:06.066Z,7.53
2018-12-17T22:53:33.608Z,266.87
2018-12-17T22:56:01.166Z,333.00
2018-12-17T22:58:28.716Z,15.30
2018-12-17T23:00:56.401Z,9.00
2018-12-17T23:03:26.472Z,6.77
2018-12-17T23:05:53.792Z,6.80
2018-12-17T23:08:21.658Z,6.60
2018-12-17T23:11:01.482Z,6.83
2018-12-17T23:13:42.661Z,6.50
2018-12-17T23:16:22.508Z,6.43
2018-12-17T23:18:49.854Z,6.03
2018-12-17T23:21:18.884Z,4.97
2018-12-17T23:23:46.461Z,5.00
2018-12-17T23:26:13.980Z,5.97
2018-12-17T23:28:41.563Z,4.23
2018-12-17T23:31:09.684Z,4.10
2018-12-17T23:33:39.528Z,4.27
2018-12-17T23:36:07.807Z,3.53
2018-12-17T23:38:36.277Z,4.43
2018-12-17T23:41:04.122Z,4.27
2018-12-17T23:43:32.138Z,4.17
2018-12-17T23:46:01.071Z,4.33
2018-12-17T23:48:29.017Z,4.90
2018-12-17T23:50:57.912Z,5.90
2018-12-17T23:53:26.019Z,5.40
2018-12-17T23:55:53.591Z,4.77
2018-12-17T23:58:21.237Z,5.97
